Time;durP1;ratioP1;P1;durP2;ratioP2;P2;SDS_P1;SDS_P2;PMS_P1;PMS_P2;Temp;Humidity;BMP_temperature;BMP_pressure;BME280_temperature;BME280_humidity;BME280_pressure;Samples;Min_cycle;Max_cycle;Signal;HPM_P1;HPM_P2
2021/12/08 00:00:28;;;;;;;14.75;9.35;;;;;;;-0.09;100.00;100001.06;5108656;28;20398;-67
2021/12/08 00:02:54;;;;;;;16.38;10.43;;;;;;;-0.07;100.00;100020.06;5115337;28;20032;-68
2021/12/08 00:05:20;;;;;;;11.52;8.18;;;;;;;-0.06;100.00;100013.88;5115693;28;20027;-65
2021/12/08 00:07:47;;;;;;;12.57;9.43;;;;;;;-0.06;100.00;100023.50;5115374;28;20027;-64
2021/12/08 00:13:04;;;;;;;;;;;;;;;-0.12;100.00;100027.38;5102737;28;20498;-67
2021/12/08 00:15:32;;;;;;;14.68;9.55;;;;;;;-0.12;100.00;100030.00;5110285;28;20309;-67
2021/12/08 00:17:59;;;;;;;16.73;9.27;;;;;;;-0.11;100.00;100034.25;5115143;28;20127;-67
2021/12/08 00:20:30;;;;;;;18.48;10.63;;;;;;;-0.05;100.00;100036.41;5114105;28;20122;-64
2021/12/08 00:22:56;;;;;;;16.80;10.57;;;;;;;-0.22;100.00;100013.41;5115119;28;20067;-67
2021/12/08 00:25:21;;;;;;;16.73;9.32;;;;;;;-0.08;100.00;100033.19;5115162;28;20110;-66
2021/12/08 00:27:47;;;;;;;13.02;9.82;;;;;;;-0.07;100.00;100037.47;5106338;28;20070;-69
2021/12/08 00:30:12;;;;;;;17.42;9.10;;;;;;;-0.14;100.00;100021.47;5111415;28;20027;-63
2021/12/08 00:32:38;;;;;;;22.60;9.82;;;;;;;-0.17;100.00;100024.28;5113859;28;20034;-65
2021/12/08 00:35:06;;;;;;;16.00;10.52;;;;;;;-0.14;100.00;100029.28;5114802;28;20024;-64
2021/12/08 00:37:32;;;;;;;14.13;9.05;;;;;;;-0.22;100.00;100023.84;5113937;28;20036;-68
2021/12/08 00:39:58;;;;;;;14.45;9.50;;;;;;;-0.21;100.00;100014.25;5111975;28;20043;-64
2021/12/08 00:42:24;;;;;;;14.98;9.30;;;;;;;-0.13;100.00;100024.91;5106910;28;20055;-64
2021/12/08 00:44:49;;;;;;;14.73;10.15;;;;;;;-0.18;100.00;100033.06;5111948;28;20058;-63
2021/12/08 00:47:16;;;;;;;17.52;11.10;;;;;;;-0.13;100.00;100023.13;5111513;27;20049;-65
2021/12/08 00:49:42;;;;;;;16.85;10.32;;;;;;;-0.12;100.00;100008.31;5113782;28;20482;-67
2021/12/08 00:52:08;;;;;;;12.77;9.13;;;;;;;-0.37;100.00;100002.41;5113724;28;20118;-63
2021/12/08 00:54:34;;;;;;;14.55;9.35;;;;;;;-0.31;100.00;100011.50;5114460;28;20111;-67
2021/12/08 00:57:00;;;;;;;16.98;10.10;;;;;;;-0.26;100.00;100008.56;5097801;28;20032;-67
2021/12/08 00:59:26;;;;;;;19.30;9.77;;;;;;;-0.21;100.00;99999.44;5106419;28;20049;-65
2021/12/08 01:01:51;;;;;;;15.27;8.93;;;;;;;-0.30;100.00;100000.94;5113985;28;20031;-65
2021/12/08 01:04:17;;;;;;;19.92;10.45;;;;;;;-0.34;100.00;99994.34;5114398;28;20439;-64
2021/12/08 01:06:43;;;;;;;11.93;8.93;;;;;;;-0.33;100.00;99995.97;5114254;27;20019;-65
2021/12/08 01:09:12;;;;;;;16.83;9.25;;;;;;;-0.39;100.00;100004.28;5097514;28;20024;-64
2021/12/08 01:11:38;;;;;;;19.45;9.13;;;;;;;-0.41;100.00;100002.75;5112646;28;20436;-67
2021/12/08 01:14:05;;;;;;;17.98;10.88;;;;;;;-0.39;100.00;100021.69;5109848;28;20032;-69
2021/12/08 01:16:31;;;;;;;15.13;8.82;;;;;;;-0.35;100.00;100029.16;5096557;28;20398;-64
2021/12/08 01:18:56;;;;;;;20.35;12.25;;;;;;;-0.37;100.00;100015.44;5106209;28;20024;-68
2021/12/08 01:21:22;;;;;;;20.92;9.77;;;;;;;-0.34;100.00;100019.56;5113939;28;20055;-68
2021/12/08 01:23:49;;;;;;;16.25;9.27;;;;;;;-0.44;100.00;99992.53;5108180;28;20016;-67
2021/12/08 01:26:14;;;;;;;20.27;11.30;;;;;;;-0.35;100.00;100013.53;5111595;28;20028;-66
2021/12/08 01:28:40;;;;;;;14.57;10.02;;;;;;;-0.34;100.00;100022.16;5110412;28;20023;-66
2021/12/08 01:31:06;;;;;;;15.80;10.05;;;;;;;-0.38;100.00;100021.56;5098649;28;20028;-67
2021/12/08 01:33:34;;;;;;;15.93;9.25;;;;;;;-0.35;100.00;100023.94;5111233;28;20023;-64
2021/12/08 01:36:04;;;;;;;12.55;9.88;;;;;;;-0.35;100.00;100023.13;5112644;28;20036;-64
2021/12/08 01:38:30;;;;;;;19.50;11.45;;;;;;;-0.35;100.00;100030.94;5108690;28;20047;-65
2021/12/08 01:40:56;;;;;;;18.77;9.20;;;;;;;-0.39;100.00;100019.06;5113584;28;20022;-67
2021/12/08 01:43:28;;;;;;;24.70;10.00;;;;;;;-0.40;100.00;100020.84;5113499;28;20027;-66
2021/12/08 01:46:07;;;;;;;19.77;11.60;;;;;;;-0.44;100.00;100015.97;5106810;28;20115;-69
2021/12/08 01:48:35;;;;;;;14.43;10.77;;;;;;;-0.40;100.00;100020.03;5111258;28;20020;-65
2021/12/08 01:51:05;;;;;;;16.27;10.05;;;;;;;-0.41;100.00;100016.59;5111385;28;20115;-68
2021/12/08 01:53:32;;;;;;;16.25;10.10;;;;;;;-0.36;100.00;100008.44;5113180;28;20031;-66
2021/12/08 01:55:58;;;;;;;15.85;9.80;;;;;;;-0.39;100.00;100004.28;5113287;28;20027;-66
2021/12/08 01:58:26;;;;;;;16.73;9.98;;;;;;;-0.42;100.00;99995.88;5110045;28;20028;-66
2021/12/08 02:01:04;;;;;;;17.35;9.10;;;;;;;-0.53;100.00;99985.44;5113100;28;20019;-63
2021/12/08 02:03:30;;;;;;;20.67;10.43;;;;;;;-0.47;100.00;99988.41;5111514;28;20039;-67
2021/12/08 02:05:56;;;;;;;19.95;10.98;;;;;;;-0.48;100.00;99996.34;5109649;28;20478;-65
2021/12/08 02:08:23;;;;;;;15.73;9.32;;;;;;;-0.41;100.00;100000.13;5112530;28;20023;-66
2021/12/08 02:10:49;;;;;;;20.00;10.60;;;;;;;-0.49;100.00;100002.50;5112158;28;20031;-66
2021/12/08 02:13:16;;;;;;;17.80;10.10;;;;;;;-0.53;100.00;100003.66;5110458;28;20114;-64
2021/12/08 02:15:42;;;;;;;17.20;10.88;;;;;;;-0.56;100.00;99995.16;5111610;28;20019;-65
2021/12/08 02:18:11;;;;;;;23.23;10.70;;;;;;;-0.63;100.00;99996.56;5112299;28;20062;-68
2021/12/08 02:20:38;;;;;;;13.05;9.38;;;;;;;-0.58;100.00;99997.03;5103929;28;20036;-64
2021/12/08 02:23:04;;;;;;;19.15;10.85;;;;;;;-0.61;100.00;99993.81;5113110;28;20032;-64
2021/12/08 02:25:30;;;;;;;17.40;10.00;;;;;;;-0.61;100.00;100001.63;5112775;28;20549;-65
2021/12/08 02:27:58;;;;;;;19.45;10.70;;;;;;;-0.66;100.00;99988.97;5110110;27;20028;-66
2021/12/08 02:30:46;;;;;;;20.95;10.70;;;;;;;-0.65;100.00;99990.63;5111350;28;20033;-67
2021/12/08 02:47:13;;;;;;;21.80;10.23;;;;;;;-0.81;100.00;99978.88;5111489;28;20050;-67
2021/12/08 02:49:38;;;;;;;21.17;10.27;;;;;;;-0.78;100.00;99976.06;5110332;28;20118;-67
2021/12/08 02:52:07;;;;;;;9.98;8.57;;;;;;;-0.80;100.00;99985.75;5108940;28;20479;-66
2021/12/08 02:54:42;;;;;;;18.38;10.07;;;;;;;-0.81;100.00;99971.06;5111418;28;20199;-65
2021/12/08 02:57:10;;;;;;;16.73;10.25;;;;;;;-0.74;100.00;99980.06;5110316;28;20024;-68
2021/12/08 02:59:36;;;;;;;13.07;9.75;;;;;;;-0.83;100.00;99973.78;5095358;28;20027;-63
2021/12/08 03:02:04;;;;;;;11.68;8.60;;;;;;;-0.81;100.00;99981.47;5094141;28;20040;-65
2021/12/08 03:04:29;;;;;;;15.60;10.75;;;;;;;-0.85;100.00;99989.53;5110794;28;20081;-66
2021/12/08 03:06:55;;;;;;;12.40;9.95;;;;;;;-0.81;100.00;99981.47;5105550;28;20055;-64
2021/12/08 03:09:21;;;;;;;21.25;9.02;;;;;;;-0.82;100.00;99988.47;5112246;28;20031;-68
2021/12/08 03:11:52;;;;;;;16.00;9.95;;;;;;;-0.79;100.00;100000.44;5112396;28;20046;-67
2021/12/08 03:14:18;;;;;;;17.10;9.73;;;;;;;-0.75;100.00;99988.81;5109399;28;20027;-64
2021/12/08 03:16:51;;;;;;;12.57;8.45;;;;;;;-0.84;100.00;99999.00;5105227;28;20024;-67
2021/12/08 03:19:20;;;;;;;11.95;8.68;;;;;;;-0.83;100.00;99994.63;5116529;28;20102;-69
2021/12/08 03:21:46;;;;;;;21.88;10.07;;;;;;;-0.82;100.00;99991.06;5115546;28;20059;-65
2021/12/08 03:24:23;;;;;;;16.27;9.10;;;;;;;-0.81;100.00;99991.88;5115510;28;20055;-68
2021/12/08 03:27:14;;;;;;;15.10;9.57;;;;;;;-0.86;100.00;99990.47;5098231;28;20031;-69
2021/12/08 03:32:13;;;;;;;17.17;9.90;;;;;;;-0.97;100.00;99979.19;5101529;28;20034;-64
2021/12/08 03:34:49;;;;;;;13.88;8.75;;;;;;;-0.98;100.00;99985.34;5116460;28;20032;-63
2021/12/08 03:37:14;;;;;;;13.90;8.20;;;;;;;-0.96;100.00;99978.25;5115908;28;20474;-66
2021/12/08 03:39:41;;;;;;;14.50;8.90;;;;;;;-0.92;100.00;99990.09;5115090;28;20024;-67
2021/12/08 03:42:07;;;;;;;8.95;7.97;;;;;;;-0.98;100.00;99975.75;5114440;28;20481;-68
2021/12/08 03:44:33;;;;;;;16.30;8.65;;;;;;;-1.06;100.00;99964.28;5104886;28;20133;-67
2021/12/08 03:47:04;;;;;;;16.20;9.18;;;;;;;-0.96;100.00;99978.25;5114759;28;20024;-67
2021/12/08 03:49:32;;;;;;;12.73;9.50;;;;;;;-0.96;100.00;99976.47;5115993;28;20059;-69
2021/12/08 03:52:01;;;;;;;17.60;9.63;;;;;;;-0.99;100.00;99971.50;5114616;28;20024;-66
2021/12/08 03:54:27;;;;;;;14.48;9.27;;;;;;;-0.97;100.00;99967.00;5115727;28;20031;-67
2021/12/08 03:56:52;;;;;;;13.25;8.88;;;;;;;-1.02;100.00;99976.13;5108460;28;20062;-67
2021/12/08 03:59:18;;;;;;;11.23;8.07;;;;;;;-1.03;100.00;99982.25;5101948;28;20490;-66
2021/12/08 04:01:43;;;;;;;16.90;9.75;;;;;;;-1.08;100.00;99974.78;5115333;28;20064;-67
2021/12/08 04:04:10;;;;;;;12.73;8.23;;;;;;;-1.02;100.00;99995.16;5114650;28;20039;-65
2021/12/08 04:06:50;;;;;;;15.88;9.48;;;;;;;-1.00;100.00;99997.66;5114405;28;20038;-67
2021/12/08 04:09:41;;;;;;;15.77;9.18;;;;;;;-1.01;100.00;100002.03;5115556;28;20385;-67
2021/12/08 04:12:04;;;;;;;13.38;8.82;;;;;;;-1.07;100.00;99999.06;5108441;28;20398;-70
2021/12/08 04:14:35;;;;;;;11.90;8.55;;;;;;;-1.06;100.00;100005.91;5105999;28;20024;-68
2021/12/08 04:17:38;;;;;;;18.40;9.93;;;;;;;-1.00;100.00;100015.88;5112695;28;20409;-64
2021/12/08 04:20:08;;;;;;;12.80;8.27;;;;;;;-1.06;100.00;100011.94;5083133;28;20541;-63
2021/12/08 04:22:42;;;;;;;20.33;9.68;;;;;;;-1.06;100.00;100017.16;5113385;28;20355;-64
2021/12/08 04:25:12;;;;;;;14.77;8.88;;;;;;;-1.12;100.00;100028.84;5113497;28;20016;-64
2021/12/08 04:27:40;;;;;;;16.05;9.73;;;;;;;-1.08;100.00;100023.44;5106388;28;20095;-69
2021/12/08 04:30:10;;;;;;;13.75;9.48;;;;;;;-1.11;100.00;100025.28;5115046;28;20031;-66
2021/12/08 04:32:37;;;;;;;17.55;9.85;;;;;;;-1.13;100.00;100032.38;5110952;28;20505;-65
2021/12/08 04:35:04;;;;;;;17.90;8.85;;;;;;;-1.11;100.00;100032.28;5114827;28;20059;-67
2021/12/08 04:37:34;;;;;;;16.40;9.65;;;;;;;-1.10;100.00;100028.75;5114282;28;20024;-65
2021/12/08 04:46:16;;;;;;;15.38;8.75;;;;;;;-1.09;100.00;100045.19;5114627;28;20055;-67
2021/12/08 05:04:42;;;;;;;14.90;10.10;;;;;;;-1.19;100.00;100063.22;5107782;28;20054;-67
2021/12/08 05:09:54;;;;;;;16.50;10.57;;;;;;;-1.19;100.00;100071.88;5101753;28;20023;-64
2021/12/08 05:12:23;;;;;;;20.95;9.98;;;;;;;-1.19;100.00;100063.22;5107854;28;20422;-69
2021/12/08 05:14:57;;;;;;;17.92;10.65;;;;;;;-1.66;100.00;99986.84;5104962;28;20494;-67
2021/12/08 05:17:40;;;;;;;18.38;10.57;;;;;;;-1.24;100.00;100062.75;5106550;28;20104;-67
2021/12/08 05:20:32;;;;;;;21.20;10.32;;;;;;;-1.32;100.00;100050.31;5109127;28;20092;-63
2021/12/08 05:23:09;;;;;;;14.48;10.02;;;;;;;-1.26;100.00;100080.22;5103192;27;20043;-70
2021/12/08 05:25:39;;;;;;;19.20;11.40;;;;;;;-1.22;100.00;100074.69;5108671;28;20034;-71
2021/12/08 05:28:08;;;;;;;13.07;8.38;;;;;;;-1.32;100.00;100062.44;5100946;28;20094;-65
2021/12/08 05:30:42;;;;;;;17.83;9.95;;;;;;;-1.24;100.00;100075.78;5110430;28;20023;-67
2021/12/08 05:33:11;;;;;;;15.18;10.05;;;;;;;-1.30;100.00;100074.44;5110156;28;20043;-65
2021/12/08 05:35:38;;;;;;;9.68;8.70;;;;;;;-1.37;100.00;100073.19;5104742;28;20535;-66
2021/12/08 05:38:04;;;;;;;13.10;8.95;;;;;;;-1.36;100.00;100063.63;5097510;28;20069;-65
2021/12/08 05:40:37;;;;;;;13.38;9.10;;;;;;;-1.41;100.00;100069.97;5110728;28;20027;-66
2021/12/08 05:43:05;;;;;;;11.23;8.52;;;;;;;-1.43;100.00;100069.25;5106225;27;20024;-64
2021/12/08 05:45:31;;;;;;;18.67;12.05;;;;;;;-1.05;100.00;100070.03;5104638;28;20039;-68
2021/12/08 05:47:56;;;;;;;14.95;9.02;;;;;;;-1.44;100.00;100077.19;5099050;28;20049;-66
2021/12/08 05:50:34;;;;;;;18.55;10.60;;;;;;;-1.46;100.00;100068.66;5099560;28;20019;-68
2021/12/08 05:53:00;;;;;;;15.27;9.95;;;;;;;-1.48;100.00;100086.13;5107935;28;20026;-66
2021/12/08 05:55:26;;;;;;;15.65;11.27;;;;;;;-1.55;100.00;100080.53;5093635;28;20030;-65
2021/12/08 05:57:52;;;;;;;16.58;10.18;;;;;;;-1.54;100.00;100081.34;5112363;28;20032;-67
2021/12/08 06:00:25;;;;;;;17.55;10.70;;;;;;;-1.46;100.00;100087.72;5108315;28;20482;-68
2021/12/08 06:02:51;;;;;;;17.75;11.85;;;;;;;-1.50;100.00;100091.44;5102677;28;20127;-66
2021/12/08 06:05:18;;;;;;;14.60;9.45;;;;;;;-1.51;100.00;100084.59;5105854;28;20085;-65
2021/12/08 06:07:45;;;;;;;12.75;8.40;;;;;;;-1.58;100.00;100070.34;5108708;28;20034;-70
2021/12/08 06:10:19;;;;;;;15.48;10.93;;;;;;;-1.54;100.00;100078.75;5106984;28;20101;-68
2021/12/08 06:12:44;;;;;;;10.75;8.48;;;;;;;-1.63;100.00;100098.44;5112391;28;20050;-65
2021/12/08 06:15:11;;;;;;;18.48;9.70;;;;;;;-1.59;100.00;100088.69;5112124;28;20457;-70
2021/12/08 06:17:36;;;;;;;20.83;11.90;;;;;;;-1.58;100.00;100072.94;5112432;28;20476;-65
2021/12/08 06:20:06;;;;;;;24.52;10.65;;;;;;;-1.63;100.00;100076.81;5101073;27;20063;-67
2021/12/08 06:22:31;;;;;;;16.17;10.40;;;;;;;-1.60;100.00;100080.03;5112130;28;20035;-65
2021/12/08 06:24:57;;;;;;;9.60;8.50;;;;;;;-1.61;100.00;100087.97;5110184;28;20107;-69
2021/12/08 06:27:23;;;;;;;13.60;9.30;;;;;;;-1.60;100.00;100094.81;5102020;28;20022;-68
2021/12/08 06:29:49;;;;;;;14.65;9.10;;;;;;;-1.64;100.00;100093.34;5104349;28;20054;-66
2021/12/08 06:32:16;;;;;;;17.50;9.93;;;;;;;-1.69;100.00;100093.66;5107148;28;20027;-67
2021/12/08 06:34:45;;;;;;;17.38;10.95;;;;;;;-1.64;100.00;100083.78;5099253;28;20031;-68
2021/12/08 06:37:16;;;;;;;16.10;10.65;;;;;;;-1.61;100.00;100109.59;5110476;28;20023;-66
2021/12/08 06:39:57;;;;;;;12.85;10.20;;;;;;;-1.69;100.00;100099.72;5107310;28;20028;-71
2021/12/08 06:42:25;;;;;;;18.67;10.52;;;;;;;-1.69;100.00;100104.06;5111175;28;20106;-67
2021/12/08 06:44:53;;;;;;;20.70;12.73;;;;;;;-1.74;100.00;100099.22;5110433;28;20047;-68
2021/12/08 06:47:22;;;;;;;16.70;9.43;;;;;;;-1.65;100.00;100102.09;5095313;28;20544;-66
2021/12/08 06:49:50;;;;;;;12.50;8.65;;;;;;;-1.70;100.00;100108.44;5103017;28;20026;-66
2021/12/08 06:52:22;;;;;;;13.95;9.43;;;;;;;-1.63;100.00;100102.81;5098590;28;20118;-65
2021/12/08 06:54:58;;;;;;;17.98;10.15;;;;;;;-1.69;100.00;100111.88;5106512;28;20024;-67
2021/12/08 06:57:31;;;;;;;15.90;11.07;;;;;;;-1.67;100.00;100110.84;5111883;28;20020;-69
2021/12/08 07:00:00;;;;;;;11.47;10.30;;;;;;;-1.72;100.00;100101.69;5110437;28;20032;-67
2021/12/08 07:05:30;;;;;;;19.92;10.77;;;;;;;-1.72;100.00;100114.69;5109563;28;20164;-70
2021/12/08 07:08:06;;;;;;;15.00;10.50;;;;;;;-1.75;100.00;100117.53;5096023;28;20062;-74
2021/12/08 07:10:39;;;;;;;15.73;8.57;;;;;;;-1.80;100.00;100099.63;5104908;28;20023;-71
2021/12/08 07:13:10;;;;;;;19.13;8.55;;;;;;;-1.83;100.00;100102.44;5104368;28;20413;-70
2021/12/08 07:15:50;;;;;;;14.27;8.90;;;;;;;-1.92;100.00;100079.66;5099389;28;20034;-71
2021/12/08 07:18:20;;;;;;;18.98;11.27;;;;;;;-1.92;100.00;100087.47;5101379;28;20091;-71
2021/12/08 07:20:55;;;;;;;21.80;12.15;;;;;;;-1.76;100.00;100115.88;5103709;28;20046;-69
2021/12/08 07:23:26;;;;;;;12.77;10.43;;;;;;;-1.73;100.00;100121.66;5100667;28;20050;-69
2021/12/08 07:25:53;;;;;;;15.00;9.57;;;;;;;-1.79;100.00;100109.09;5099963;28;20036;-69
2021/12/08 07:28:22;;;;;;;15.13;9.80;;;;;;;-1.79;100.00;100108.25;5105770;28;20432;-69
2021/12/08 07:30:59;;;;;;;18.88;10.80;;;;;;;-1.77;100.00;100111.56;5096764;28;20020;-70
2021/12/08 07:33:27;;;;;;;16.90;10.35;;;;;;;-1.71;100.00;100122.38;5101856;28;20023;-70
2021/12/08 07:35:57;;;;;;;18.88;10.70;;;;;;;-1.72;100.00;100112.09;5089901;28;20024;-69
2021/12/08 07:38:26;;;;;;;19.30;10.48;;;;;;;-1.80;100.00;100110.03;5100287;28;20110;-68
2021/12/08 07:41:06;;;;;;;25.15;11.75;;;;;;;-1.73;100.00;100118.25;5099382;28;20051;-68
2021/12/08 07:43:34;;;;;;;14.43;10.20;;;;;;;-1.71;100.00;100116.34;5097442;28;20032;-70
2021/12/08 07:46:15;;;;;;;11.93;9.45;;;;;;;-1.75;100.00;100118.34;5102501;28;20023;-70
2021/12/08 07:48:49;;;;;;;21.58;11.80;;;;;;;-1.75;100.00;100120.13;5097197;28;20020;-69
2021/12/08 07:51:42;;;;;;;13.65;10.27;;;;;;;-1.81;100.00;100104.94;5106292;28;20035;-71
2021/12/08 07:54:08;;;;;;;23.35;12.98;;;;;;;-1.77;100.00;100125.41;5086445;28;20040;-70
2021/12/08 07:56:39;;;;;;;24.30;13.13;;;;;;;-1.68;100.00;100121.34;5093221;28;20032;-78
2021/12/08 07:59:10;;;;;;;16.55;10.15;;;;;;;-1.87;100.00;100089.75;5091033;28;20218;-72
2021/12/08 08:01:40;;;;;;;18.55;11.18;;;;;;;-1.79;100.00;100109.09;5102650;28;20028;-79
2021/12/08 08:04:09;;;;;;;22.50;13.00;;;;;;;-1.83;100.00;100125.03;5107983;28;20120;-77
2021/12/08 08:06:37;;;;;;;17.45;11.25;;;;;;;-1.75;100.00;100117.53;5107541;28;20034;-79
2021/12/08 08:09:07;;;;;;;19.60;11.52;;;;;;;-2.13;100.00;100043.03;5098493;28;20481;-76
2021/12/08 08:11:42;;;;;;;18.35;9.50;;;;;;;-1.87;100.00;100092.38;5100320;28;20017;-76
2021/12/08 08:14:10;;;;;;;23.92;14.27;;;;;;;-1.69;100.00;100096.28;5108965;28;20386;-77
2021/12/08 08:16:37;;;;;;;23.90;12.15;;;;;;;-1.78;100.00;100079.53;5095865;27;20032;-73
2021/12/08 08:19:14;;;;;;;17.65;12.30;;;;;;;-1.79;100.00;100101.28;5096356;27;20478;-74
2021/12/08 08:21:44;;;;;;;23.33;11.32;;;;;;;-1.74;100.00;100100.97;5099109;28;20354;-67
2021/12/08 08:24:11;;;;;;;23.98;12.77;;;;;;;-1.71;100.00;100087.75;5098604;28;21341;-82
2021/12/08 08:26:40;;;;;;;20.85;13.68;;;;;;;-1.87;100.00;100084.56;5112918;28;20466;-77
2021/12/08 08:29:07;;;;;;;25.35;11.60;;;;;;;-1.75;100.00;100081.13;5112292;28;20020;-76
2021/12/08 08:31:40;;;;;;;21.75;10.75;;;;;;;-1.78;100.00;100091.72;5114324;28;20034;-76
2021/12/08 08:34:06;;;;;;;24.23;11.65;;;;;;;-1.82;100.00;100079.88;5107148;28;20027;-76
2021/12/08 08:36:39;;;;;;;17.42;12.45;;;;;;;-1.76;100.00;100082.06;5100023;28;20024;-78
2021/12/08 08:39:11;;;;;;;24.20;12.82;;;;;;;-1.71;100.00;100080.78;5100239;28;20031;-78
2021/12/08 08:41:49;;;;;;;22.20;12.20;;;;;;;-1.63;100.00;100095.84;5103591;27;20513;-78
2021/12/08 08:44:24;;;;;;;23.83;13.95;;;;;;;-1.80;100.00;100088.41;5108673;28;20419;-74
2021/12/08 08:46:52;;;;;;;19.27;12.23;;;;;;;-1.83;100.00;100080.81;5103192;28;20034;-77
2021/12/08 08:49:22;;;;;;;22.33;12.60;;;;;;;-1.61;100.00;100101.78;5101733;28;20486;-75
2021/12/08 08:52:00;;;;;;;18.05;11.55;;;;;;;-1.64;100.00;100102.00;5103284;28;20054;-76
2021/12/08 08:54:31;;;;;;;23.45;10.68;;;;;;;-2.16;100.00;100025.03;5098437;28;20558;-76
2021/12/08 08:57:08;;;;;;;19.52;11.93;;;;;;;-1.72;100.00;100091.28;5093039;28;20406;-71
2021/12/08 08:59:42;;;;;;;22.08;11.50;;;;;;;-2.09;100.00;100013.28;5093297;28;20038;-76
2021/12/08 09:02:09;;;;;;;20.77;11.40;;;;;;;-1.71;100.00;100069.56;5104901;28;20051;-80
2021/12/08 09:04:50;;;;;;;14.18;10.57;;;;;;;-1.64;100.00;100065.59;5104391;28;20035;-80
2021/12/08 09:07:28;;;;;;;21.73;11.98;;;;;;;-1.64;100.00;100057.78;5104515;28;20374;-78
2021/12/08 09:09:57;;;;;;;17.67;11.75;;;;;;;-1.64;100.00;100056.94;5104366;28;20019;-78
2021/12/08 09:12:22;;;;;;;32.00;14.25;;;;;;;-1.58;100.00;100091.16;5109332;28;20028;-78
2021/12/08 09:15:14;;;;;;;21.73;13.00;;;;;;;-1.53;100.00;100101.25;5107846;28;20091;-75
2021/12/08 09:17:52;;;;;;;16.05;9.85;;;;;;;-1.55;100.00;100088.34;5099488;28;20119;-75
2021/12/08 09:20:25;;;;;;;19.90;11.52;;;;;;;-1.60;100.00;100064.44;5101617;28;20023;-76
2021/12/08 09:23:07;;;;;;;25.75;11.35;;;;;;;-1.47;100.00;100065.25;5099694;28;20513;-75
2021/12/08 09:25:40;;;;;;;23.25;12.32;;;;;;;-1.45;100.00;100062.53;5097397;28;20127;-80
2021/12/08 09:28:13;;;;;;;29.33;13.03;;;;;;;-1.93;100.00;99999.22;5103618;28;20024;-77
2021/12/08 09:30:45;;;;;;;30.38;12.73;;;;;;;-1.99;100.00;99995.25;5101046;28;20272;-78
2021/12/08 09:33:24;;;;;;;28.35;11.55;;;;;;;-1.57;100.00;100073.78;5096041;28;20115;-78
2021/12/08 09:36:01;;;;;;;15.10;10.93;;;;;;;-1.55;100.00;100066.69;5101915;27;20505;-75
2021/12/08 09:38:31;;;;;;;27.67;14.20;;;;;;;-1.45;100.00;100065.13;5093705;28;20036;-75
2021/12/08 09:41:06;;;;;;;21.23;11.13;;;;;;;-1.54;100.00;100058.81;5106238;28;20386;-73
2021/12/08 09:43:45;;;;;;;22.50;12.15;;;;;;;-1.46;100.00;100068.66;5096676;28;20024;-74
2021/12/08 09:46:18;;;;;;;21.30;12.68;;;;;;;-1.51;100.00;100061.19;5091781;28;20478;-77
2021/12/08 09:48:46;;;;;;;26.60;13.75;;;;;;;-1.51;100.00;100068.97;5100513;28;20058;-75
2021/12/08 09:51:13;;;;;;;19.80;11.18;;;;;;;-1.47;100.00;100064.38;5100392;28;20500;-75
2021/12/08 09:53:43;;;;;;;29.45;13.75;;;;;;;-1.56;100.00;100055.47;5096637;28;20027;-77
2021/12/08 09:56:09;;;;;;;28.15;15.10;;;;;;;-1.60;100.00;100055.81;5098142;28;20035;-74
2021/12/08 09:58:37;;;;;;;29.33;12.75;;;;;;;-1.67;100.00;100056.22;5093988;28;20520;-74
2021/12/08 10:01:04;;;;;;;18.30;11.32;;;;;;;-1.58;100.00;100070.34;5088457;28;20535;-74
2021/12/08 10:03:29;;;;;;;25.27;15.32;;;;;;;-1.62;100.00;100062.88;5088170;28;20122;-70
2021/12/08 10:05:55;;;;;;;22.80;12.10;;;;;;;-1.69;100.00;100049.47;5098059;28;20359;-73
2021/12/08 10:08:21;;;;;;;22.92;14.05;;;;;;;-1.62;100.00;100049.88;5091298;28;20038;-75
2021/12/08 10:10:47;;;;;;;17.55;13.35;;;;;;;-1.67;100.00;100048.44;5102921;28;20470;-74
2021/12/08 10:13:16;;;;;;;26.33;12.85;;;;;;;-1.65;100.00;100029.28;5092955;28;20034;-73
2021/12/08 10:15:42;;;;;;;16.33;11.02;;;;;;;-1.60;100.00;100035.84;5099642;28;20118;-77
2021/12/08 10:18:10;;;;;;;20.58;12.60;;;;;;;-1.59;100.00;100034.88;5091465;28;20114;-75
2021/12/08 10:20:38;;;;;;;22.95;13.60;;;;;;;-1.59;100.00;100041.84;5087299;28;20059;-76
2021/12/08 10:23:15;;;;;;;21.90;11.98;;;;;;;-1.65;100.00;100043.13;5093522;28;20053;-76
2021/12/08 10:25:47;;;;;;;18.58;10.63;;;;;;;-1.59;100.00;100034.06;5090133;28;20054;-75
2021/12/08 10:28:17;;;;;;;18.52;13.30;;;;;;;-1.60;100.00;100048.00;5088894;28;20114;-75
2021/12/08 10:31:09;;;;;;;27.77;15.48;;;;;;;-1.49;100.00;100042.84;5072386;28;20390;-73
2021/12/08 10:34:03;;;;;;;21.00;13.35;;;;;;;-1.51;100.00;100034.34;5072166;28;20048;-74
2021/12/08 10:37:00;;;;;;;21.00;12.50;;;;;;;-1.54;100.00;100027.59;5085660;28;20650;-75
2021/12/08 10:39:28;;;;;;;30.75;14.05;;;;;;;-1.44;100.00;100023.38;5088268;28;20047;-73
2021/12/08 10:42:09;;;;;;;22.08;13.55;;;;;;;-1.60;100.00;100025.44;5082850;28;20040;-75
2021/12/08 10:45:07;;;;;;;26.75;14.52;;;;;;;-1.60;100.00;100035.00;5084934;28;20535;-76
2021/12/08 10:47:35;;;;;;;43.78;18.05;;;;;;;-1.68;100.00;100025.97;5083679;28;20403;-76
2021/12/08 10:55:56;;;;;;;20.00;13.00;;;;;;;-1.75;100.00;100013.50;5088510;28;20120;-77
2021/12/08 10:58:25;;;;;;;22.70;14.13;;;;;;;-1.74;100.00;100007.38;5079710;28;20035;-79
2021/12/08 11:00:52;;;;;;;18.77;14.00;;;;;;;-1.77;100.00;100015.38;5084334;28;20047;-79
2021/12/08 11:03:19;;;;;;;25.30;12.57;;;;;;;-1.73;100.00;100025.47;5082987;28;20054;-76
2021/12/08 11:05:51;;;;;;;16.20;10.65;;;;;;;-1.76;100.00;100015.28;5102802;28;20035;-77
2021/12/08 11:08:21;;;;;;;13.13;9.95;;;;;;;-1.90;100.00;100005.03;5103759;28;20031;-74
2021/12/08 11:10:55;;;;;;;15.25;10.30;;;;;;;-1.80;100.00;100023.41;5111563;28;20402;-78
2021/12/08 11:13:29;;;;;;;;;;;;;;;-1.70;100.00;100033.03;5109075;28;20023;-76
2021/12/08 11:16:04;;;;;;;30.38;10.70;;;;;;;-1.72;100.00;100034.91;5102620;28;19922;-77
2021/12/08 11:18:30;;;;;;;16.88;12.60;;;;;;;-1.99;100.00;99998.69;5104826;28;20028;-75
2021/12/08 11:21:05;;;;;;;26.35;12.18;;;;;;;-1.73;100.00;100029.84;5110607;28;20030;-80
2021/12/08 11:26:17;;;;;;;21.75;13.32;;;;;;;-1.78;100.00;100022.34;5102849;28;20427;-78
2021/12/08 11:28:45;;;;;;;17.98;11.82;;;;;;;-1.78;100.00;100019.75;5093165;28;20028;-78
2021/12/08 11:31:14;;;;;;;22.17;13.80;;;;;;;-1.84;100.00;100022.78;5091456;28;20067;-75
2021/12/08 11:33:47;;;;;;;20.23;12.38;;;;;;;-1.97;100.00;100003.81;5096012;28;20054;-76
2021/12/08 11:36:16;;;;;;;24.30;12.10;;;;;;;-1.85;100.00;100013.31;5098436;28;20039;-76
2021/12/08 11:38:44;;;;;;;25.13;14.45;;;;;;;-1.78;100.00;100016.31;5097373;28;20371;-77
2021/12/08 11:41:36;;;;;;;14.75;10.48;;;;;;;-1.82;100.00;100014.88;5103817;28;20028;-77
2021/12/08 11:44:21;;;;;;;20.25;11.63;;;;;;;-1.76;100.00;100024.88;5100675;27;20441;-73
2021/12/08 11:46:50;;;;;;;23.23;11.35;;;;;;;-1.92;100.00;100001.69;5106766;28;20058;-75
2021/12/08 11:49:17;;;;;;;19.75;11.98;;;;;;;-1.82;100.00;100013.13;5104575;28;20093;-77
2021/12/08 11:51:42;;;;;;;26.90;13.73;;;;;;;-1.80;100.00;100018.19;5099581;28;20060;-77
2021/12/08 11:54:21;;;;;;;22.58;10.60;;;;;;;-1.74;100.00;100018.59;5105945;28;20081;-73
2021/12/08 11:56:47;;;;;;;24.15;11.35;;;;;;;-1.79;100.00;100009.47;5100703;28;20033;-78
2021/12/08 11:59:13;;;;;;;19.63;11.05;;;;;;;-1.90;100.00;99981.63;5098739;28;20540;-76
2021/12/08 12:01:39;;;;;;;22.33;13.45;;;;;;;-1.70;100.00;100016.59;5102202;28;20038;-80
2021/12/08 12:04:07;;;;;;;19.40;12.45;;;;;;;-1.79;100.00;99989.50;5105559;28;20047;-79
2021/12/08 12:06:34;;;;;;;21.25;12.50;;;;;;;-1.72;100.00;100001.13;5095000;28;20051;-77
2021/12/08 12:09:02;;;;;;;18.33;10.95;;;;;;;-1.68;100.00;100007.78;5099492;28;20016;-79
2021/12/08 12:11:30;;;;;;;21.77;11.48;;;;;;;-1.79;100.00;99994.69;5096071;28;20027;-76
2021/12/08 12:13:57;;;;;;;22.88;12.48;;;;;;;-1.69;100.00;100015.66;5110863;28;20550;-78
2021/12/08 12:16:24;;;;;;;13.90;9.77;;;;;;;-1.69;100.00;100008.72;5107635;28;20024;-76